Time;durP1;ratioP1;P1;durP2;ratioP2;P2;SDS_P1;SDS_P2;PMS_P1;PMS_P2;Temp;Humidity;BMP_temperature;BMP_pressure;BME280_temperature;BME280_humidity;BME280_pressure;Samples;Min_cycle;Max_cycle;Signal;HPM_P1;HPM_P2
2021/08/12 00:00:49;;;;;;;18.47;9.83;;;;;;;23.65;67.33;99262.28;3373913;29;20048;-71
2021/08/12 00:02:30;;;;;;;10.93;8.47;;;;;;;23.65;67.45;99262.28;3377025;29;20044;-72
2021/08/12 00:04:11;;;;;;;14.80;8.70;;;;;;;23.67;67.51;99259.25;3376833;29;20040;-72
2021/08/12 00:05:52;;;;;;;13.73;8.52;;;;;;;23.70;67.13;99264.13;3375910;29;20036;-71
2021/08/12 00:07:33;;;;;;;12.40;8.83;;;;;;;23.71;67.14;99257.56;3377019;29;20142;-73
2021/08/12 00:09:13;;;;;;;16.00;10.10;;;;;;;23.70;67.14;99258.69;3375619;29;20068;-72
2021/08/12 00:10:54;;;;;;;11.47;8.73;;;;;;;23.65;67.33;99248.66;3374606;29;20048;-75
2021/08/12 00:12:35;;;;;;;10.37;7.83;;;;;;;23.63;67.42;99247.34;3376042;29;20048;-74
2021/08/12 00:14:15;;;;;;;12.53;9.97;;;;;;;23.64;67.30;99254.41;3376732;29;20052;-72
2021/08/12 00:15:56;;;;;;;12.43;8.90;;;;;;;23.63;67.49;99245.44;3375116;29;20425;-72
2021/08/12 00:17:37;;;;;;;11.40;8.90;;;;;;;23.63;67.41;99244.63;3375399;29;20040;-73
2021/08/12 00:19:19;;;;;;;14.57;9.03;;;;;;;23.61;67.39;99244.09;3372529;29;20046;-74
2021/08/12 00:20:59;;;;;;;14.32;9.68;;;;;;;23.56;67.37;99244.16;3370648;29;20508;-73
2021/08/12 00:22:40;;;;;;;12.00;8.67;;;;;;;23.59;67.62;99240.84;3374576;29;20028;-71
2021/08/12 00:24:21;;;;;;;11.17;8.43;;;;;;;23.60;67.77;99239.78;3375768;29;20079;-72
2021/08/12 00:26:03;;;;;;;14.52;8.30;;;;;;;23.60;67.54;99235.13;3375910;29;20083;-71
2021/08/12 00:27:45;;;;;;;;;;;;;;;23.64;67.56;99229.91;3376720;29;20048;-71
2021/08/12 00:29:26;;;;;;;12.57;7.88;;;;;;;23.63;67.63;99225.56;3374509;29;19935;-73
2021/08/12 00:31:07;;;;;;;10.57;7.90;;;;;;;23.61;67.62;99222.34;3375069;29;20493;-72
2021/08/12 00:32:47;;;;;;;9.03;7.17;;;;;;;23.61;67.79;99230.50;3374627;29;20131;-72
2021/08/12 00:34:29;;;;;;;10.30;8.50;;;;;;;23.58;67.80;99231.09;3375860;29;20495;-73
2021/08/12 00:36:10;;;;;;;8.40;7.57;;;;;;;23.54;67.67;99230.03;3374895;29;20048;-73
2021/08/12 00:37:53;;;;;;;9.32;7.57;;;;;;;23.52;67.89;99231.16;3375349;29;20056;-72
2021/08/12 00:39:36;;;;;;;10.27;8.75;;;;;;;23.50;67.79;99229.81;3371586;29;20556;-73
2021/08/12 00:41:22;;;;;;;10.27;7.85;;;;;;;23.49;68.07;99220.03;3368972;29;20041;-72
2021/08/12 00:43:11;;;;;;;15.63;8.20;;;;;;;23.50;68.24;99222.47;3373493;29;20175;-73
2021/08/12 00:44:52;;;;;;;12.25;8.80;;;;;;;23.52;68.10;99223.00;3373348;29;20045;-73
2021/08/12 00:46:34;;;;;;;13.70;8.70;;;;;;;23.49;68.19;99209.97;3372092;29;20041;-73
2021/08/12 00:48:15;;;;;;;11.43;9.50;;;;;;;23.53;67.87;99212.91;3374518;29;20076;-74
2021/08/12 00:49:55;;;;;;;10.37;8.43;;;;;;;23.51;68.08;99201.50;3369508;29;20551;-73
2021/08/12 00:51:38;;;;;;;12.17;8.60;;;;;;;23.53;68.15;99199.31;3371775;29;20123;-72
2021/08/12 00:53:19;;;;;;;12.80;9.80;;;;;;;23.52;68.01;99197.69;3362075;29;20131;-73
2021/08/12 00:55:01;;;;;;;10.87;9.07;;;;;;;23.49;68.33;99190.09;3381135;29;20131;-74
2021/08/12 00:56:43;;;;;;;12.38;9.55;;;;;;;23.52;68.37;99190.34;3374903;29;20075;-74
2021/08/12 00:58:24;;;;;;;10.45;8.60;;;;;;;23.55;68.18;99186.22;3362731;29;20449;-72
2021/08/12 01:00:06;;;;;;;10.63;8.85;;;;;;;23.55;68.05;99188.16;3368063;29;20049;-73
2021/08/12 01:01:49;;;;;;;11.30;9.23;;;;;;;23.55;68.12;99188.94;3374778;29;20052;-72
2021/08/12 01:03:30;;;;;;;11.13;9.23;;;;;;;23.56;68.03;99179.66;3362337;29;20504;-74
2021/08/12 01:05:11;;;;;;;12.57;9.82;;;;;;;23.58;68.43;99173.94;3373607;29;20048;-73
2021/08/12 01:07:06;;;;;;;14.88;10.93;;;;;;;23.58;67.86;99172.03;3363234;29;20080;-73
2021/08/12 01:09:06;;;;;;;10.40;9.13;;;;;;;23.60;67.99;99163.59;3360085;29;20477;-72
2021/08/12 01:10:55;;;;;;;11.65;9.23;;;;;;;23.59;68.08;99164.69;3359227;29;20064;-73
2021/08/12 01:12:59;;;;;;;13.13;10.35;;;;;;;23.60;67.92;99163.59;3360581;29;20053;-73
2021/08/12 01:14:57;;;;;;;18.35;9.77;;;;;;;23.58;68.16;99171.22;3350218;29;20053;-73
2021/08/12 01:16:42;;;;;;;12.68;9.57;;;;;;;23.57;68.43;99185.91;3348893;29;20046;-71
2021/08/12 01:18:33;;;;;;;12.45;9.93;;;;;;;23.59;68.01;99186.44;3370574;29;20051;-74
2021/08/12 01:20:32;;;;;;;14.47;10.00;;;;;;;23.59;68.07;99187.25;3361724;29;20067;-73
2021/08/12 01:22:17;;;;;;;12.82;10.85;;;;;;;23.57;68.37;99191.34;3362366;29;20337;-73
2021/08/12 01:24:01;;;;;;;11.40;10.05;;;;;;;23.55;68.07;99193.59;3369112;29;20507;-73
2021/08/12 01:25:44;;;;;;;15.40;9.73;;;;;;;23.52;68.41;99195.78;3388266;29;20571;-74
2021/08/12 01:27:29;;;;;;;12.93;10.52;;;;;;;23.52;67.78;99192.25;3373963;29;20068;-73
2021/08/12 01:29:26;;;;;;;14.75;10.00;;;;;;;23.53;67.89;99196.59;3373699;29;20588;-75
2021/08/12 01:31:26;;;;;;;14.57;10.60;;;;;;;23.48;68.27;99189.28;3360651;29;20076;-73
2021/08/12 01:33:21;;;;;;;10.90;9.18;;;;;;;23.45;68.44;99184.44;3374877;29;20180;-74
2021/08/12 01:35:07;;;;;;;12.77;10.40;;;;;;;23.39;68.39;99193.78;3363109;29;20573;-72
2021/08/12 01:36:54;;;;;;;14.30;10.40;;;;;;;23.35;68.38;99195.44;3363228;29;20097;-72
2021/08/12 01:38:37;;;;;;;11.80;10.32;;;;;;;23.34;68.90;99203.88;3372527;29;20048;-73
2021/08/12 01:40:20;;;;;;;11.80;8.98;;;;;;;23.33;68.45;99192.22;3378258;29;20121;-72
2021/08/12 01:42:03;;;;;;;14.25;10.93;;;;;;;23.31;68.95;99194.41;3376353;29;20051;-72
2021/08/12 01:43:44;;;;;;;13.93;10.18;;;;;;;23.35;68.57;99195.44;3347281;29;20046;-73
2021/08/12 01:45:26;;;;;;;16.20;9.70;;;;;;;23.31;68.45;99178.09;3359953;29;20056;-73
2021/08/12 01:47:08;;;;;;;11.18;9.85;;;;;;;23.39;68.96;99185.63;3362178;29;20053;-73
2021/08/12 01:48:49;;;;;;;12.20;9.18;;;;;;;23.41;68.65;99172.50;3374276;29;20096;-72
2021/08/12 01:50:30;;;;;;;13.55;9.68;;;;;;;23.41;68.50;99169.00;3375004;29;20047;-73
2021/08/12 01:52:11;;;;;;;11.68;9.50;;;;;;;23.46;68.62;99168.94;3350857;29;20494;-71
2021/08/12 01:53:52;;;;;;;12.45;9.20;;;;;;;23.46;68.46;99169.72;3353558;29;20047;-72
2021/08/12 01:55:33;;;;;;;11.45;8.80;;;;;;;23.48;68.50;99162.09;3358821;29;20048;-72
2021/08/12 01:57:16;;;;;;;11.60;9.40;;;;;;;23.50;68.74;99159.91;3372072;29;20484;-72
2021/08/12 01:58:59;;;;;;;9.15;8.13;;;;;;;23.54;68.31;99148.41;3377142;29;20476;-72
2021/08/12 02:00:48;;;;;;;10.63;8.70;;;;;;;23.56;67.95;99151.66;3374555;29;20040;-72
2021/08/12 02:02:30;;;;;;;13.77;8.75;;;;;;;23.57;68.05;99142.38;3376792;29;20476;-73
2021/08/12 02:04:13;;;;;;;;;;;;;;;23.59;68.38;99141.00;3375041;29;20040;-72
2021/08/12 02:05:57;;;;;;;10.60;8.35;;;;;;;23.58;68.00;99133.16;3362962;29;19926;-72
2021/08/12 02:07:37;;;;;;;9.25;8.13;;;;;;;23.58;68.03;99133.94;3360782;29;20465;-71
2021/08/12 02:09:18;;;;;;;9.97;8.47;;;;;;;23.59;67.89;99138.28;3374699;29;20132;-72
2021/08/12 02:11:00;;;;;;;8.65;7.82;;;;;;;23.60;68.05;99139.09;3377438;29;20051;-71
2021/08/12 02:12:44;;;;;;;11.18;8.00;;;;;;;23.60;68.21;99136.38;3375687;29;20053;-71
2021/08/12 02:14:25;;;;;;;;;;;;;;;23.63;67.82;99141.22;3374333;29;20049;-71
2021/08/12 02:16:09;;;;;;;11.40;7.93;;;;;;;23.56;67.95;99133.44;3375644;29;19972;-72
2021/08/12 02:17:51;;;;;;;15.15;9.10;;;;;;;23.53;68.45;99131.28;3377439;29;20604;-71
2021/08/12 02:19:32;;;;;;;10.23;7.43;;;;;;;23.50;68.27;99121.81;3373185;29;20055;-73
2021/08/12 02:21:17;;;;;;;15.57;8.40;;;;;;;23.53;68.15;99125.84;3364048;29;20062;-72
2021/08/12 02:23:06;;;;;;;10.77;8.57;;;;;;;23.52;68.46;99125.06;3370024;29;20037;-73
2021/08/12 02:24:55;;;;;;;12.65;7.47;;;;;;;23.54;68.23;99126.66;3373911;29;20069;-72
2021/08/12 02:26:42;;;;;;;13.10;7.60;;;;;;;23.52;68.30;99119.63;3375618;29;20048;-72
2021/08/12 02:28:23;;;;;;;10.80;8.30;;;;;;;23.53;68.25;99114.97;3374530;29;20097;-73
2021/08/12 02:30:05;;;;;;;11.30;8.00;;;;;;;23.53;68.44;99104.09;3377877;29;20041;-72
2021/08/12 02:31:46;;;;;;;;;;;;;;;23.57;68.10;99105.13;3377480;29;20055;-72
2021/08/12 02:33:28;;;;;;;11.35;7.63;;;;;;;23.53;67.95;99106.81;3375327;29;20299;-73
2021/08/12 02:35:11;;;;;;;10.63;6.80;;;;;;;23.56;67.89;99110.84;3375121;29;20049;-72
2021/08/12 02:36:53;;;;;;;13.75;7.95;;;;;;;23.56;68.00;99110.84;3376863;29;20100;-72
2021/08/12 02:38:37;;;;;;;9.05;7.32;;;;;;;23.52;67.97;99114.19;3374820;29;20048;-73
2021/08/12 02:40:18;;;;;;;9.18;6.85;;;;;;;23.52;68.38;99125.06;3374892;29;20074;-72
2021/08/12 02:42:05;;;;;;;7.75;6.97;;;;;;;23.50;68.49;99124.53;3376089;29;20044;-72
2021/08/12 02:43:48;;;;;;;9.05;7.55;;;;;;;23.47;68.37;99127.03;3362807;29;20156;-71
2021/08/12 02:45:29;;;;;;;9.75;6.85;;;;;;;23.45;68.86;99112.91;3363220;29;20045;-72
2021/08/12 02:47:11;;;;;;;11.30;7.30;;;;;;;23.43;68.52;99124.09;3367751;29;20071;-73
2021/08/12 02:48:54;;;;;;;7.72;6.93;;;;;;;23.43;68.81;99126.00;3374738;29;20048;-72
2021/08/12 02:50:39;;;;;;;8.68;7.50;;;;;;;23.38;69.06;99118.72;3363867;29;20537;-72
2021/08/12 02:52:22;;;;;;;8.38;5.85;;;;;;;23.38;69.15;99124.16;3372482;29;20056;-72
2021/08/12 02:54:05;;;;;;;7.45;6.63;;;;;;;23.38;69.15;99115.19;3358599;29;20060;-72
2021/08/12 02:55:48;;;;;;;6.82;5.68;;;;;;;23.39;68.97;99120.34;3371633;29;20044;-72
2021/08/12 02:57:30;;;;;;;7.47;6.13;;;;;;;23.41;68.92;99122.75;3377539;29;20059;-73
2021/08/12 02:59:11;;;;;;;6.65;5.95;;;;;;;23.44;69.10;99106.69;3376549;29;20135;-71
2021/08/12 03:00:52;;;;;;;7.00;6.05;;;;;;;23.49;69.00;99103.88;3371920;29;20123;-72
2021/08/12 03:02:34;;;;;;;7.95;6.22;;;;;;;23.50;68.66;99102.78;3376842;29;20147;-72
2021/08/12 03:04:17;;;;;;;;;;;;;;;23.54;68.66;99100.25;3363506;29;20049;-72
2021/08/12 03:05:59;;;;;;;7.28;6.57;;;;;;;23.48;68.84;99104.97;3370133;29;19975;-72
2021/08/12 03:07:42;;;;;;;7.40;5.60;;;;;;;23.48;68.54;99099.53;3360967;29;20044;-73
2021/08/12 03:09:25;;;;;;;7.57;5.72;;;;;;;23.47;68.74;99100.66;3371854;29;20142;-73
2021/08/12 03:11:09;;;;;;;6.18;5.57;;;;;;;23.46;68.80;99101.72;3376271;29;20227;-71
2021/08/12 03:12:51;;;;;;;6.68;6.00;;;;;;;23.48;68.57;99102.25;3376678;29;20115;-71
2021/08/12 03:14:33;;;;;;;6.65;5.78;;;;;;;23.47;68.85;99100.66;3362902;29;20055;-72
2021/08/12 03:16:14;;;;;;;7.45;5.78;;;;;;;23.49;68.77;99108.50;3358513;29;20051;-71
2021/08/12 03:17:55;;;;;;;5.87;5.30;;;;;;;23.47;68.94;99108.00;3357941;29;20576;-73
2021/08/12 03:19:35;;;;;;;8.10;6.45;;;;;;;23.47;68.72;99111.53;3371374;29;20049;-71
2021/08/12 03:21:16;;;;;;;6.23;5.63;;;;;;;23.46;69.06;99120.78;3372997;29;20080;-75
2021/08/12 03:22:58;;;;;;;6.87;5.50;;;;;;;23.49;69.05;99119.38;3375719;29;20124;-74
2021/08/12 03:24:42;;;;;;;7.05;5.68;;;;;;;23.51;68.95;99123.41;3369697;29;20629;-73
2021/08/12 03:26:22;;;;;;;6.18;5.57;;;;;;;23.55;68.47;99134.53;3372917;29;20077;-71
2021/08/12 03:28:04;;;;;;;7.33;5.50;;;;;;;23.57;68.76;99135.06;3373622;29;20044;-72
2021/08/12 03:29:46;;;;;;;9.10;5.75;;;;;;;23.60;68.56;99139.09;3365042;29;20045;-73
2021/08/12 03:31:27;;;;;;;6.90;5.32;;;;;;;23.61;68.86;99144.22;3367740;29;20079;-72
2021/08/12 03:33:08;;;;;;;7.47;6.63;;;;;;;23.59;68.68;99140.19;3368824;29;20540;-73
2021/08/12 03:34:49;;;;;;;8.95;5.93;;;;;;;23.62;68.39;99150.47;3369872;29;20037;-73
2021/08/12 03:36:31;;;;;;;7.00;6.30;;;;;;;23.58;68.57;99144.03;3375087;29;20048;-72
2021/08/12 03:38:13;;;;;;;6.10;5.47;;;;;;;23.60;68.63;99144.53;3377176;29;20052;-75
2021/08/12 03:39:53;;;;;;;7.03;6.27;;;;;;;23.59;68.64;99134.75;3377187;29;20535;-78
2021/08/12 03:41:34;;;;;;;7.57;6.47;;;;;;;23.60;68.61;99136.38;3375338;29;20175;-77
2021/08/12 03:43:16;;;;;;;6.65;5.93;;;;;;;23.61;69.02;99138.00;3373830;29;20131;-76
2021/08/12 03:44:57;;;;;;;7.65;6.15;;;;;;;23.63;69.03;99130.34;3370290;29;20128;-77
2021/08/12 03:46:38;;;;;;;7.00;6.30;;;;;;;23.63;69.39;99135.78;3372604;29;20126;-76
2021/08/12 03:48:18;;;;;;;8.37;7.47;;;;;;;23.63;69.40;99138.50;3376216;29;20048;-74
2021/08/12 03:49:59;;;;;;;9.73;7.73;;;;;;;23.63;69.53;99141.22;3373931;29;20042;-78
2021/08/12 03:51:41;;;;;;;13.07;7.90;;;;;;;23.62;69.20;99139.59;3378423;29;20048;-74
2021/08/12 03:53:23;;;;;;;12.17;7.77;;;;;;;23.59;69.77;99140.19;3374536;29;20127;-73
2021/08/12 03:55:04;;;;;;;14.52;9.13;;;;;;;23.55;69.36;99145.41;3374299;29;20136;-71
2021/08/12 03:56:45;;;;;;;10.80;7.78;;;;;;;23.58;70.02;99154.91;3372706;29;20096;-73
2021/08/12 03:58:26;;;;;;;11.02;8.02;;;;;;;23.59;70.15;99145.63;3373668;29;20052;-72
2021/08/12 04:00:08;;;;;;;9.53;7.67;;;;;;;23.61;70.13;99132.56;3375462;29;20123;-72
2021/08/12 04:01:54;;;;;;;9.13;7.70;;;;;;;23.63;69.89;99130.34;3376885;29;20053;-72
2021/08/12 04:03:36;;;;;;;12.95;7.88;;;;;;;23.64;69.67;99135.47;3375106;29;20571;-72
2021/08/12 04:05:17;;;;;;;10.07;7.75;;;;;;;23.66;69.92;99135.19;3371889;29;20048;-72
2021/08/12 04:06:58;;;;;;;9.67;8.27;;;;;;;23.66;69.83;99129.75;3372397;29;20049;-72
2021/08/12 04:08:39;;;;;;;9.87;8.87;;;;;;;23.65;69.98;99125.44;3373135;29;20048;-72
2021/08/12 04:10:21;;;;;;;10.15;9.10;;;;;;;23.65;69.83;99122.72;3375625;29;20048;-72
2021/08/12 04:12:03;;;;;;;11.43;9.55;;;;;;;23.61;69.78;99127.91;3374913;29;20460;-73
2021/08/12 04:13:44;;;;;;;12.30;9.07;;;;;;;23.62;69.98;99128.72;3373243;29;20049;-72
2021/08/12 04:15:25;;;;;;;12.30;8.40;;;;;;;23.64;70.13;99127.31;3373535;29;20076;-72
2021/08/12 04:17:05;;;;;;;13.63;8.33;;;;;;;23.65;70.37;99128.16;3374062;29;20040;-72
2021/08/12 04:18:46;;;;;;;8.67;7.80;;;;;;;23.67;70.16;99120.47;3375426;29;20055;-73
2021/08/12 04:20:27;;;;;;;9.00;8.10;;;;;;;23.66;69.94;99119.69;3373511;29;20037;-73
2021/08/12 04:22:08;;;;;;;10.27;8.47;;;;;;;23.70;70.14;99119.91;3373078;29;20113;-72
2021/08/12 04:23:48;;;;;;;12.17;9.70;;;;;;;23.70;70.06;99134.31;3375737;29;20135;-72
2021/08/12 04:25:29;;;;;;;11.30;8.13;;;;;;;23.71;70.35;99141.38;3376000;29;20125;-72
2021/08/12 04:27:10;;;;;;;10.10;8.77;;;;;;;23.73;70.71;99136.47;3373558;29;20036;-73
2021/08/12 04:28:51;;;;;;;11.50;9.70;;;;;;;23.73;70.71;99131.03;3372492;29;20045;-74
2021/08/12 04:30:31;;;;;;;10.43;8.47;;;;;;;23.74;70.57;99131.84;3372188;29;20123;-70
2021/08/12 04:32:12;;;;;;;9.47;8.13;;;;;;;23.74;70.82;99131.84;3372880;29;20139;-71
2021/08/12 04:33:53;;;;;;;9.67;8.77;;;;;;;23.72;70.85;99134.88;3375429;29;20040;-71
2021/08/12 04:35:34;;;;;;;11.20;8.87;;;;;;;23.78;70.68;99138.31;3375697;29;20044;-73
2021/08/12 04:37:15;;;;;;;21.13;9.18;;;;;;;23.80;70.60;99136.13;3373273;29;20551;-75
2021/08/12 04:38:56;;;;;;;13.57;8.95;;;;;;;23.78;70.21;99132.88;3376623;29;20056;-75
2021/08/12 04:40:37;;;;;;;10.60;8.17;;;;;;;23.80;71.28;99138.00;3375316;29;20091;-74
2021/08/12 04:42:18;;;;;;;9.98;8.80;;;;;;;23.82;71.61;99131.16;3375994;29;20037;-73
2021/08/12 04:44:00;;;;;;;;;;;;;;;23.87;71.09;99120.19;3368388;29;20045;-75
2021/08/12 04:45:41;;;;;;;8.48;6.95;;;;;;;23.85;71.72;99127.88;3371005;29;20314;-73
2021/08/12 04:47:21;;;;;;;12.27;8.80;;;;;;;23.86;70.87;99121.31;3369648;29;20052;-74
2021/08/12 04:49:03;;;;;;;11.30;8.30;;;;;;;23.78;69.92;99111.09;3372054;29;20108;-73
2021/08/12 04:50:43;;;;;;;9.98;8.98;;;;;;;23.70;70.62;99119.91;3366850;29;20055;-74
2021/08/12 04:52:24;;;;;;;10.63;8.57;;;;;;;23.55;70.72;99117.41;3375586;29;20060;-73
2021/08/12 04:54:06;;;;;;;;;;;;;;;23.54;70.46;99118.50;3373763;29;20131;-72
2021/08/12 04:55:47;;;;;;;8.85;7.10;;;;;;;23.38;69.89;99120.63;3377400;29;19962;-73
2021/08/12 04:57:28;;;;;;;11.53;9.20;;;;;;;23.28;69.96;99121.56;3370128;29;20036;-74
2021/08/12 04:59:09;;;;;;;;;;;;;;;23.28;69.89;99119.69;3384124;29;20047;-74
2021/08/12 05:00:51;;;;;;;10.30;9.10;;;;;;;23.10;70.23;99111.47;3375331;29;19923;-74
2021/08/12 05:02:33;;;;;;;10.93;9.35;;;;;;;23.03;70.61;99111.84;3370802;29;20045;-74
2021/08/12 05:04:16;;;;;;;10.15;9.15;;;;;;;22.94;70.68;99100.78;3359303;29;20080;-72
2021/08/12 05:06:05;;;;;;;15.40;11.52;;;;;;;22.88;70.10;99093.78;3369454;29;20092;-73
2021/08/12 05:07:45;;;;;;;13.60;11.13;;;;;;;22.85;69.96;99084.31;3378380;29;20052;-74
2021/08/12 05:09:26;;;;;;;10.77;9.73;;;;;;;22.83;69.81;99083.78;3373107;29;20044;-74
2021/08/12 05:11:10;;;;;;;11.70;9.07;;;;;;;22.82;68.77;99078.63;3384035;29;20140;-73
2021/08/12 05:12:52;;;;;;;11.43;8.93;;;;;;;22.79;67.89;99076.50;3392034;29;20134;-77
2021/08/12 05:14:32;;;;;;;11.65;8.07;;;;;;;22.81;67.62;99071.59;3364989;29;20532;-78
2021/08/12 05:16:13;;;;;;;15.10;10.48;;;;;;;22.81;68.25;99063.44;3371394;29;20048;-74
2021/08/12 05:17:56;;;;;;;10.52;9.13;;;;;;;22.81;68.33;99055.28;3362719;29;20045;-75
2021/08/12 05:19:37;;;;;;;11.90;10.17;;;;;;;22.86;69.10;99047.06;3368251;29;20409;-77
2021/08/12 05:21:18;;;;;;;17.23;9.30;;;;;;;22.88;69.57;99042.16;3377672;29;20504;-72
2021/08/12 05:23:00;;;;;;;14.43;9.77;;;;;;;22.93;69.40;99035.84;3375424;29;20127;-75
2021/08/12 05:24:41;;;;;;;11.25;8.63;;;;;;;22.96;69.06;99030.63;3362424;29;20056;-73
2021/08/12 05:26:21;;;;;;;20.13;9.50;;;;;;;23.01;69.29;99033.31;3361992;29;20369;-75
2021/08/12 05:28:03;;;;;;;12.82;8.38;;;;;;;23.06;69.16;99022.38;3374135;29;20531;-74
2021/08/12 05:29:44;;;;;;;10.85;9.75;;;;;;;23.11;69.01;99021.50;3376514;29;20057;-78
2021/08/12 05:31:25;;;;;;;16.35;9.30;;;;;;;23.16;69.09;99007.81;3364969;29;20045;-77
2021/08/12 05:33:06;;;;;;;11.03;9.23;;;;;;;23.20;69.46;99010.75;3372224;29;20051;-75
2021/08/12 05:34:47;;;;;;;7.72;7.00;;;;;;;23.26;69.16;99006.88;3374094;29;20041;-75
2021/08/12 05:36:28;;;;;;;12.70;7.20;;;;;;;23.35;68.76;99005.09;3377347;29;20500;-74
2021/08/12 05:38:10;;;;;;;20.23;8.40;;;;;;;23.45;68.45;99010.38;3377887;29;20137;-75
2021/08/12 05:39:50;;;;;;;11.03;7.97;;;;;;;23.55;68.44;99008.59;3377510;29;20044;-74
2021/08/12 05:41:31;;;;;;;9.83;8.20;;;;;;;23.61;68.14;99007.41;3373463;29;20036;-73
2021/08/12 05:43:14;;;;;;;16.98;8.65;;;;;;;23.67;68.00;99001.59;3374962;29;20100;-75
2021/08/12 05:44:54;;;;;;;13.70;7.57;;;;;;;23.74;68.15;99009.38;3375196;29;20044;-74
2021/08/12 05:46:35;;;;;;;15.07;10.50;;;;;;;23.78;67.85;99002.25;3375910;29;20139;-74
2021/08/12 05:48:16;;;;;;;14.37;8.57;;;;;;;23.81;67.85;98996.19;3377436;29;20448;-75
2021/08/12 05:49:56;;;;;;;10.93;8.53;;;;;;;23.83;68.01;98999.44;3377755;29;20079;-75
2021/08/12 05:51:38;;;;;;;18.67;8.77;;;;;;;23.89;67.75;99002.88;3371950;29;20045;-75
2021/08/12 05:53:20;;;;;;;10.57;8.75;;;;;;;23.92;67.92;98985.94;3364752;29;20090;-73
2021/08/12 05:55:00;;;;;;;10.05;8.63;;;;;;;23.95;67.65;98979.88;3374482;29;20048;-74
2021/08/12 05:56:41;;;;;;;12.80;9.47;;;;;;;23.99;67.69;98985.56;3376472;29;20136;-73
2021/08/12 05:58:22;;;;;;;12.70;10.97;;;;;;;24.00;67.42;98993.41;3377590;29;20056;-75
2021/08/12 06:00:04;;;;;;;11.50;10.03;;;;;;;23.99;68.08;98997.25;3375485;29;20441;-73
2021/08/12 06:01:46;;;;;;;12.55;8.95;;;;;;;24.04;67.59;99005.31;3374068;29;20041;-75
2021/08/12 06:03:28;;;;;;;10.20;8.90;;;;;;;24.08;67.87;98998.16;3377515;29;20045;-73
2021/08/12 06:05:10;;;;;;;13.82;10.60;;;;;;;24.12;67.70;99014.72;3374424;29;20041;-74
2021/08/12 06:06:51;;;;;;;16.30;9.88;;;;;;;24.14;67.59;99002.41;3369363;29;20535;-74
2021/08/12 06:08:32;;;;;;;12.57;11.27;;;;;;;24.15;67.83;98990.41;3373839;29;20060;-75
2021/08/12 06:10:14;;;;;;;19.63;13.80;;;;;;;24.15;67.94;98986.88;3377230;29;20041;-74
2021/08/12 06:11:56;;;;;;;13.77;11.70;;;;;;;24.18;67.60;98983.53;3373540;29;20036;-75
2021/08/12 06:13:37;;;;;;;13.57;11.77;;;;;;;24.19;67.94;98985.19;3361767;29;20140;-74
2021/08/12 06:15:20;;;;;;;15.60;11.45;;;;;;;24.24;67.68;98995.13;3357904;29;20048;-74
2021/08/12 06:17:00;;;;;;;17.52;13.70;;;;;;;24.29;67.83;99014.94;3359406;29;20037;-75
2021/08/12 06:18:42;;;;;;;;;;;;;;;24.34;67.64;99012.13;3366643;29;20068;-73
2021/08/12 06:20:24;;;;;;;14.50;11.40;;;;;;;24.34;67.59;99031.19;3361318;29;19952;-73
2021/08/12 06:22:05;;;;;;;12.27;10.93;;;;;;;24.36;67.79;99049.94;3366639;29;20552;-75
2021/08/12 06:23:48;;;;;;;14.48;12.98;;;;;;;24.35;67.43;99059.22;3353492;29;20531;-74
2021/08/12 06:25:29;;;;;;;16.67;13.50;;;;;;;24.33;67.48;99062.22;3365605;29;20052;-77
2021/08/12 06:27:10;;;;;;;14.73;11.70;;;;;;;24.32;67.84;99063.34;3364939;29;20822;-74
2021/08/12 06:28:51;;;;;;;17.02;13.50;;;;;;;24.24;67.52;99057.78;3365292;29;20061;-74
2021/08/12 06:30:32;;;;;;;13.73;12.32;;;;;;;24.29;67.67;99066.69;3368333;29;20430;-73
2021/08/12 06:32:14;;;;;;;16.17;13.10;;;;;;;24.26;67.82;99061.81;3363368;29;20110;-73
2021/08/12 06:33:55;;;;;;;13.37;11.97;;;;;;;24.28;67.88;99064.25;3355116;29;20048;-73
2021/08/12 06:35:36;;;;;;;14.80;12.38;;;;;;;24.29;67.90;99065.84;3364289;29;20033;-74
2021/08/12 06:37:17;;;;;;;14.07;12.02;;;;;;;24.31;67.90;99063.66;3373802;29;20071;-73
2021/08/12 06:39:01;;;;;;;15.03;13.17;;;;;;;24.31;67.43;99069.88;3370418;29;20040;-76
2021/08/12 06:40:44;;;;;;;16.50;13.13;;;;;;;24.31;67.37;99075.34;3365108;29;20313;-74
2021/08/12 06:42:25;;;;;;;14.32;12.88;;;;;;;24.29;67.73;99088.47;3364829;29;20040;-74
2021/08/12 06:44:10;;;;;;;23.02;14.65;;;;;;;24.25;67.70;99090.16;3369512;29;20044;-75
2021/08/12 06:45:51;;;;;;;;;;;;;;;24.27;67.50;99087.97;3368052;29;20148;-74
2021/08/12 06:47:35;;;;;;;17.20;12.52;;;;;;;24.22;68.04;99085.31;3369683;29;22633;-75
2021/08/12 06:49:18;;;;;;;20.33;12.27;;;;;;;24.19;67.97;99077.75;3378100;29;20139;-78
2021/08/12 06:51:01;;;;;;;16.42;13.20;;;;;;;24.18;68.24;99076.13;3369758;29;20044;-76
2021/08/12 06:52:42;;;;;;;16.17;12.50;;;;;;;24.17;68.05;99074.53;3362954;29;20048;-75
2021/08/12 06:54:23;;;;;;;21.17;11.90;;;;;;;24.20;67.81;99073.13;3378670;29;20044;-74
2021/08/12 06:56:05;;;;;;;13.57;12.20;;;;;;;24.26;67.76;99075.44;3367470;29;20151;-77
2021/08/12 06:57:46;;;;;;;18.27;11.95;;;;;;;24.29;68.23;99074.84;3364711;29;20040;-76
2021/08/12 06:59:32;;;;;;;20.00;13.40;;;;;;;24.30;67.75;99072.94;3367911;29;20448;-76
2021/08/12 07:01:16;;;;;;;20.42;14.05;;;;;;;24.25;68.26;99070.31;3370338;29;20072;-75
2021/08/12 07:03:00;;;;;;;18.65;15.13;;;;;;;24.22;68.21;99071.72;3379540;29;20496;-75
2021/08/12 07:04:41;;;;;;;18.70;14.95;;;;;;;24.15;68.20;99071.28;3370593;29;20041;-76
2021/08/12 07:06:22;;;;;;;17.10;14.35;;;;;;;24.13;68.43;99079.75;3371038;29;20040;-75
2021/08/12 07:08:08;;;;;;;18.83;14.52;;;;;;;24.09;68.81;99080.66;3376524;29;20158;-76
2021/08/12 07:09:52;;;;;;;17.75;14.18;;;;;;;24.04;68.58;99076.09;3378491;29;20047;-75
2021/08/12 07:11:33;;;;;;;17.63;14.52;;;;;;;24.05;68.69;99076.91;3375984;29;20043;-75
2021/08/12 07:13:14;;;;;;;20.23;13.77;;;;;;;24.03;68.64;99079.13;3373001;29;20043;-76
2021/08/12 07:14:57;;;;;;;18.15;14.13;;;;;;;24.03;68.80;99068.22;3372660;29;20051;-75
2021/08/12 07:16:38;;;;;;;15.97;13.43;;;;;;;24.01;68.79;99067.72;3374402;29;20040;-75
2021/08/12 07:18:18;;;;;;;16.27;14.43;;;;;;;24.02;69.14;99061.19;3375559;29;20051;-75
2021/08/12 07:20:00;;;;;;;18.08;14.30;;;;;;;24.01;68.91;99070.44;3350437;29;20052;-75
2021/08/12 07:21:41;;;;;;;20.27;14.47;;;;;;;23.98;68.74;99071.03;3372277;29;20041;-75
2021/08/12 07:23:22;;;;;;;18.58;14.82;;;;;;;23.95;68.93;99078.69;3376365;29;20044;-76
2021/08/12 07:25:03;;;;;;;17.30;13.93;;;;;;;23.97;69.10;99078.41;3377214;29;20082;-75
2021/08/12 07:26:47;;;;;;;;;;;;;;;24.01;68.78;99076.72;3375801;29;20045;-75
2021/08/12 07:28:27;;;;;;;21.58;15.10;;;;;;;23.94;69.08;99071.63;3363451;29;19930;-75
2021/08/12 07:30:09;;;;;;;23.30;18.00;;;;;;;23.91;69.25;99074.97;3349651;29;20509;-75
2021/08/12 07:31:51;;;;;;;23.67;17.77;;;;;;;23.88;68.96;99077.44;3374127;29;20132;-75
2021/08/12 07:33:32;;;;;;;;;;;;;;;23.92;69.24;99073.03;3376473;29;20059;-75
2021/08/12 07:35:13;;;;;;;22.50;16.48;;;;;;;23.85;69.08;99072.59;3373393;29;20017;-74
2021/08/12 07:36:54;;;;;;;21.33;16.23;;;;;;;23.82;69.30;99070.47;3373283;29;20401;-74
2021/08/12 07:38:35;;;;;;;23.20;18.80;;;;;;;23.79;69.58;99063.72;3373517;29;20044;-75
2021/08/12 07:40:16;;;;;;;;;;;;;;;23.85;69.17;99056.28;3374110;29;20053;-75
2021/08/12 07:41:57;;;;;;;22.90;15.60;;;;;;;23.80;69.57;99059.91;3363013;29;20033;-75
2021/08/12 07:43:38;;;;;;;23.00;16.00;;;;;;;23.79;69.55;99052.03;3373815;29;20515;-75
2021/08/12 07:45:19;;;;;;;20.52;15.75;;;;;;;23.79;69.59;99041.94;3376584;29;20135;-74
2021/08/12 07:47:00;;;;;;;17.33;15.00;;;;;;;23.80;69.55;99032.69;3376003;29;20049;-75
2021/08/12 07:48:42;;;;;;;18.35;15.38;;;;;;;23.84;69.58;99043.78;3373243;29;20048;-74
2021/08/12 07:50:22;;;;;;;19.23;15.17;;;;;;;23.88;69.49;99044.78;3376659;29;20057;-75
2021/08/12 07:52:04;;;;;;;26.10;18.27;;;;;;;23.89;69.50;99055.38;3377043;29;20059;-73
2021/08/12 07:53:46;;;;;;;27.02;18.08;;;;;;;23.90;69.21;99065.16;3375504;29;20036;-75
2021/08/12 07:55:27;;;;;;;27.85;19.10;;;;;;;23.87;69.25;99063.03;3381119;29;20048;-76
2021/08/12 07:57:08;;;;;;;33.72;23.50;;;;;;;23.83;69.42;99062.03;3374504;29;20567;-75
2021/08/12 07:58:50;;;;;;;29.38;21.23;;;;;;;23.82;69.15;99065.03;3371822;29;20522;-75